Time;durP1;ratioP1;P1;durP2;ratioP2;P2;SDS_P1;SDS_P2;PMS_P1;PMS_P2;Temp;Humidity;BMP_temperature;BMP_pressure;BME280_temperature;BME280_humidity;BME280_pressure;Samples;Min_cycle;Max_cycle;Signal;HPM_P1;HPM_P2
2023/05/08 00:02:04;;;;;;;14.85;11.65;;;12.30;99.90;;;;;;5079869;28;20615;-57
2023/05/08 00:04:30;;;;;;;14.65;11.75;;;12.20;99.90;;;;;;5078289;28;20079;-57
2023/05/08 00:06:55;;;;;;;14.68;11.63;;;12.20;99.90;;;;;;5080263;28;20040;-58
2023/05/08 00:09:21;;;;;;;14.85;11.48;;;12.20;99.90;;;;;;5077427;28;20040;-57
2023/05/08 00:11:47;;;;;;;15.85;11.80;;;12.20;99.90;;;;;;5080077;28;20079;-57
2023/05/08 00:14:13;;;;;;;15.48;11.65;;;12.20;99.90;;;;;;5078267;28;20452;-58
2023/05/08 00:16:39;;;;;;;15.38;12.02;;;12.10;99.90;;;;;;5079445;28;20048;-58
2023/05/08 00:19:04;;;;;;;14.95;12.48;;;12.20;99.90;;;;;;5079166;28;20084;-57
2023/05/08 00:21:30;;;;;;;16.40;12.38;;;12.10;99.90;;;;;;5078261;28;20049;-58
2023/05/08 00:23:56;;;;;;;16.83;12.45;;;12.20;99.90;;;;;;5079093;28;20039;-57
2023/05/08 00:26:21;;;;;;;17.95;12.75;;;12.10;99.90;;;;;;5077761;28;20036;-57
2023/05/08 00:28:47;;;;;;;16.45;13.10;;;12.00;99.90;;;;;;5079699;28;20047;-57
2023/05/08 00:31:13;;;;;;;17.15;13.18;;;11.90;99.90;;;;;;5077731;28;20036;-58
2023/05/08 00:33:39;;;;;;;16.00;12.93;;;11.90;99.90;;;;;;5079042;28;20044;-57
2023/05/08 00:36:06;;;;;;;18.27;13.85;;;11.90;99.90;;;;;;5078735;28;20506;-57
2023/05/08 00:38:35;;;;;;;17.02;12.93;;;11.80;99.90;;;;;;5077542;28;20514;-58
2023/05/08 00:41:01;;;;;;;15.70;12.60;;;11.80;99.90;;;;;;5079184;28;20044;-57
2023/05/08 00:43:27;;;;;;;17.42;13.73;;;11.70;99.90;;;;;;5077058;28;20047;-57
2023/05/08 00:45:59;;;;;;;16.45;13.38;;;11.70;99.90;;;;;;5079637;28;20098;-58
2023/05/08 00:48:29;;;;;;;;;;;11.70;99.90;;;;;;5089026;28;20044;-57
2023/05/08 00:50:55;;;;;;;16.77;12.85;;;11.70;99.90;;;;;;5078417;28;19943;-58
2023/05/08 00:53:24;;;;;;;16.75;12.88;;;11.60;99.90;;;;;;5078588;28;20062;-57
2023/05/08 00:55:51;;;;;;;16.40;12.48;;;11.60;99.90;;;;;;5077294;28;20064;-58
2023/05/08 00:58:19;;;;;;;17.83;13.43;;;11.60;99.90;;;;;;5079006;28;20086;-58
2023/05/08 01:00:45;;;;;;;18.70;13.43;;;11.50;99.90;;;;;;5059015;28;20501;-58
2023/05/08 01:03:12;;;;;;;17.60;14.32;;;11.60;99.90;;;;;;5079351;28;20622;-57
2023/05/08 01:05:39;;;;;;;18.17;12.95;;;11.50;99.90;;;;;;5077224;28;20056;-58
2023/05/08 01:08:05;;;;;;;17.50;13.55;;;11.50;99.90;;;;;;5077990;28;20052;-58
2023/05/08 01:10:49;;;;;;;17.42;13.68;;;11.50;99.90;;;;;;5078231;28;20048;-57
2023/05/08 01:13:37;;;;;;;17.60;14.18;;;11.50;99.90;;;;;;5076853;28;20051;-58
2023/05/08 01:16:14;;;;;;;16.70;13.32;;;11.50;99.90;;;;;;5060872;28;20044;-58
2023/05/08 01:19:10;;;;;;;17.58;14.00;;;11.40;99.90;;;;;;5077370;28;20044;-58
2023/05/08 01:21:50;;;;;;;17.58;14.45;;;11.30;99.90;;;;;;5076886;28;20048;-57
2023/05/08 01:24:27;;;;;;;18.73;14.35;;;11.30;99.90;;;;;;5078418;28;20052;-57
2023/05/08 01:27:24;;;;;;;17.77;14.93;;;11.30;99.90;;;;;;5076446;28;20044;-58
2023/05/08 01:30:29;;;;;;;19.45;14.70;;;11.30;99.90;;;;;;5077102;28;20438;-58
2023/05/08 01:33:00;;;;;;;18.48;13.63;;;11.30;99.90;;;;;;5078500;28;20111;-57
2023/05/08 01:35:37;;;;;;;19.83;15.20;;;11.30;99.90;;;;;;5076428;28;20086;-57
2023/05/08 01:38:14;;;;;;;17.60;14.40;;;11.30;99.90;;;;;;5077926;28;20044;-57
2023/05/08 01:40:53;;;;;;;17.17;13.88;;;11.30;99.90;;;;;;5077954;28;20108;-57
2023/05/08 01:43:40;;;;;;;18.35;14.05;;;11.20;99.90;;;;;;5076446;28;20079;-57
2023/05/08 01:46:12;;;;;;;19.00;14.95;;;11.20;99.90;;;;;;5078330;28;20129;-58
2023/05/08 01:48:49;;;;;;;17.98;14.82;;;11.20;99.90;;;;;;5088888;28;20040;-57
2023/05/08 01:51:21;;;;;;;16.55;13.32;;;11.20;99.90;;;;;;5076786;28;20049;-58
2023/05/08 01:53:51;;;;;;;;;;;11.10;99.90;;;;;;5078430;28;20048;-58
2023/05/08 01:56:22;;;;;;;18.73;14.25;;;11.10;99.90;;;;;;5076047;28;20165;-58
2023/05/08 01:58:53;;;;;;;18.88;14.57;;;11.10;99.90;;;;;;5078023;28;20037;-57
2023/05/08 02:01:22;;;;;;;18.13;13.98;;;11.00;99.90;;;;;;5076086;28;20041;-57
2023/05/08 02:03:49;;;;;;;18.23;14.40;;;11.00;99.90;;;;;;5077078;28;20040;-57
2023/05/08 02:06:19;;;;;;;19.00;15.05;;;11.10;99.90;;;;;;5077591;28;20048;-58
2023/05/08 02:08:45;;;;;;;20.15;15.45;;;11.00;99.90;;;;;;5076194;28;20095;-57
2023/05/08 02:11:13;;;;;;;18.38;14.13;;;11.10;99.90;;;;;;5077625;28;20067;-57
2023/05/08 02:13:40;;;;;;;19.00;14.73;;;11.10;99.90;;;;;;5075705;28;20044;-56
2023/05/08 02:16:10;;;;;;;19.30;15.25;;;11.00;99.90;;;;;;5078186;28;20044;-57
2023/05/08 02:18:39;;;;;;;18.45;15.27;;;11.10;99.90;;;;;;5076486;28;20052;-57
2023/05/08 02:21:08;;;;;;;18.75;14.60;;;11.00;99.90;;;;;;5058590;28;20048;-58
2023/05/08 02:23:34;;;;;;;18.00;14.18;;;11.00;99.90;;;;;;5077648;28;20064;-57
2023/05/08 02:26:02;;;;;;;19.17;14.40;;;11.00;99.90;;;;;;5076252;28;20068;-58
2023/05/08 02:28:29;;;;;;;19.40;14.48;;;11.00;99.90;;;;;;5077899;28;20044;-57
2023/05/08 02:30:57;;;;;;;21.83;14.88;;;10.90;99.90;;;;;;5075612;28;20056;-57
2023/05/08 02:33:26;;;;;;;19.80;15.15;;;10.90;99.90;;;;;;5077861;28;20049;-57
2023/05/08 02:35:55;;;;;;;19.05;15.10;;;10.90;99.90;;;;;;5076796;28;20064;-57
2023/05/08 02:38:22;;;;;;;19.15;14.73;;;10.90;99.90;;;;;;5076580;28;20127;-57
2023/05/08 02:40:53;;;;;;;19.08;14.43;;;10.90;99.90;;;;;;5077144;28;20048;-56
2023/05/08 02:43:19;;;;;;;19.70;14.83;;;10.90;99.90;;;;;;5075361;28;20055;-57
2023/05/08 02:46:09;;;;;;;18.70;14.73;;;10.80;99.90;;;;;;5077938;28;20068;-57
2023/05/08 02:48:58;;;;;;;19.25;14.85;;;10.90;99.90;;;;;;5087999;28;20116;-58
2023/05/08 02:51:41;;;;;;;20.17;15.48;;;10.80;99.90;;;;;;5076170;28;20049;-57
2023/05/08 02:54:12;;;;;;;19.67;14.85;;;10.70;99.90;;;;;;5077651;28;20049;-58
2023/05/08 02:56:49;;;;;;;19.92;15.63;;;10.80;99.90;;;;;;5075561;28;20105;-58
2023/05/08 03:00:04;;;;;;;18.02;14.55;;;10.80;99.90;;;;;;5076962;28;20055;-58
2023/05/08 03:03:01;;;;;;;18.52;14.73;;;10.70;99.90;;;;;;4999049;28;20064;-57
2023/05/08 03:05:33;;;;;;;19.33;14.63;;;10.60;99.90;;;;;;5074356;28;20107;-58
2023/05/08 03:08:04;;;;;;;19.05;14.05;;;10.60;99.90;;;;;;5080687;28;20276;-57
2023/05/08 03:10:33;;;;;;;20.23;14.13;;;10.50;99.90;;;;;;5080743;28;20048;-57
2023/05/08 03:13:03;;;;;;;18.42;14.57;;;10.60;99.90;;;;;;5060894;28;20062;-57
2023/05/08 03:15:53;;;;;;;17.92;14.32;;;10.50;99.90;;;;;;5081043;28;20059;-58
2023/05/08 03:18:22;;;;;;;18.48;14.15;;;10.50;99.90;;;;;;5079148;28;20048;-57
2023/05/08 03:20:55;;;;;;;20.42;13.43;;;10.50;99.90;;;;;;5080384;28;20083;-57
2023/05/08 03:23:23;;;;;;;18.23;13.60;;;10.40;99.90;;;;;;5080217;28;20063;-58
2023/05/08 03:25:50;;;;;;;21.45;13.88;;;10.50;99.90;;;;;;5079222;28;20040;-58
2023/05/08 03:28:17;;;;;;;20.13;14.30;;;10.50;99.90;;;;;;5080667;28;20133;-58
2023/05/08 03:30:43;;;;;;;18.70;13.70;;;10.40;99.90;;;;;;5078256;28;20067;-58
2023/05/08 03:33:11;;;;;;;17.33;13.52;;;10.40;99.90;;;;;;5080702;28;20044;-57
2023/05/08 03:35:38;;;;;;;17.83;13.48;;;10.40;99.90;;;;;;5079007;28;20047;-58
2023/05/08 03:38:05;;;;;;;18.90;13.98;;;10.40;99.90;;;;;;5080040;28;20123;-58
2023/05/08 03:40:37;;;;;;;17.70;13.98;;;10.30;99.90;;;;;;5080258;28;20400;-57
2023/05/08 03:43:05;;;;;;;20.50;14.73;;;10.40;99.90;;;;;;5078592;28;20443;-58
2023/05/08 03:45:37;;;;;;;19.70;14.07;;;10.30;99.90;;;;;;5080846;28;20048;-57
2023/05/08 03:48:05;;;;;;;17.52;13.40;;;10.30;99.90;;;;;;5091229;28;20091;-58
2023/05/08 03:50:31;;;;;;;19.00;14.85;;;10.30;99.90;;;;;;5080314;28;20049;-58
2023/05/08 03:53:00;;;;;;;18.00;13.65;;;10.20;99.90;;;;;;5079234;28;20559;-58
2023/05/08 03:55:26;;;;;;;19.27;13.90;;;10.20;99.90;;;;;;5079100;28;20052;-59
2023/05/08 03:58:23;;;;;;;18.60;13.70;;;10.30;99.90;;;;;;5079840;28;20033;-58
2023/05/08 04:00:58;;;;;;;21.02;14.27;;;10.20;99.90;;;;;;5077892;28;20044;-57
2023/05/08 04:03:50;;;;;;;19.02;13.55;;;10.20;99.90;;;;;;5080244;28;20040;-57
2023/05/08 04:06:30;;;;;;;19.15;13.68;;;10.20;99.90;;;;;;5079901;28;20521;-57
2023/05/08 04:09:32;;;;;;;18.95;14.27;;;10.20;99.90;;;;;;5077638;28;20041;-58
2023/05/08 04:12:29;;;;;;;17.88;13.68;;;10.20;99.90;;;;;;5079451;28;20072;-58
2023/05/08 04:15:22;;;;;;;18.58;13.65;;;10.10;99.90;;;;;;5079374;28;20095;-57
2023/05/08 04:17:59;;;;;;;18.77;13.68;;;10.10;99.90;;;;;;5073690;28;20504;-57
2023/05/08 04:20:28;;;;;;;19.23;13.68;;;10.10;99.90;;;;;;5079917;28;20091;-57
2023/05/08 04:22:56;;;;;;;19.38;13.82;;;10.20;99.90;;;;;;5078909;28;20047;-57
2023/05/08 04:25:22;;;;;;;19.27;14.43;;;10.20;99.90;;;;;;5078503;28;20103;-58
2023/05/08 04:27:53;;;;;;;19.25;13.57;;;10.10;99.90;;;;;;5079272;28;20108;-57
2023/05/08 04:30:19;;;;;;;18.02;14.02;;;10.20;99.90;;;;;;5077611;28;20403;-58
2023/05/08 04:32:46;;;;;;;18.02;14.30;;;10.30;99.90;;;;;;5079840;28;20048;-58
2023/05/08 04:35:12;;;;;;;19.23;14.25;;;10.20;99.90;;;;;;5077260;28;20068;-58
2023/05/08 04:37:39;;;;;;;18.58;13.82;;;10.20;99.90;;;;;;5079821;28;20037;-58
2023/05/08 04:40:06;;;;;;;16.70;13.25;;;10.30;99.90;;;;;;5078154;28;20059;-57
2023/05/08 04:42:35;;;;;;;18.98;13.90;;;10.40;99.90;;;;;;5078178;28;20049;-58
2023/05/08 04:45:01;;;;;;;18.90;14.40;;;10.40;99.90;;;;;;5079108;28;20072;-57
2023/05/08 04:47:26;;;;;;;19.02;13.98;;;10.40;99.90;;;;;;5087083;28;20051;-58
2023/05/08 04:49:52;;;;;;;18.85;15.15;;;10.40;99.90;;;;;;5082226;28;20033;-57
2023/05/08 04:52:18;;;;;;;17.52;13.52;;;10.50;99.90;;;;;;5077209;28;20555;-57
2023/05/08 04:54:43;;;;;;;17.95;14.07;;;10.60;99.90;;;;;;5078984;28;20121;-57
2023/05/08 04:57:09;;;;;;;17.90;13.40;;;10.60;99.90;;;;;;5078041;28;20055;-57
2023/05/08 04:59:35;;;;;;;18.30;13.77;;;10.60;99.90;;;;;;5077811;28;20045;-56
2023/05/08 05:02:01;;;;;;;17.98;13.60;;;10.60;99.90;;;;;;5078744;28;20439;-58
2023/05/08 05:04:27;;;;;;;18.25;13.50;;;10.70;99.90;;;;;;5076899;28;20049;-58
2023/05/08 05:06:53;;;;;;;19.00;14.10;;;10.80;99.90;;;;;;5079242;28;20044;-57
2023/05/08 05:09:19;;;;;;;16.35;13.13;;;10.80;99.90;;;;;;5076943;28;20072;-57
2023/05/08 05:11:45;;;;;;;17.85;13.68;;;10.90;99.90;;;;;;5079040;28;20082;-57
2023/05/08 05:14:10;;;;;;;20.05;13.60;;;10.90;99.90;;;;;;5076657;28;20108;-57
2023/05/08 05:16:36;;;;;;;15.75;12.52;;;11.00;99.90;;;;;;5077832;28;20048;-57
2023/05/08 05:19:02;;;;;;;15.82;12.63;;;11.00;99.90;;;;;;5077872;28;20036;-57
2023/05/08 05:21:28;;;;;;;16.65;12.95;;;11.10;99.90;;;;;;5076900;28;20149;-58
2023/05/08 05:23:53;;;;;;;16.42;12.73;;;11.20;99.90;;;;;;5077353;28;20055;-58
2023/05/08 05:26:20;;;;;;;15.65;12.68;;;11.30;99.90;;;;;;5075762;28;20048;-58
2023/05/08 05:28:46;;;;;;;15.85;12.20;;;11.30;99.90;;;;;;5078541;28;20045;-58
2023/05/08 05:31:12;;;;;;;15.82;12.40;;;11.30;99.90;;;;;;5076636;28;20083;-57
2023/05/08 05:33:38;;;;;;;16.38;12.38;;;11.30;99.90;;;;;;5078120;28;20037;-58
2023/05/08 05:36:04;;;;;;;16.30;12.50;;;11.50;99.90;;;;;;5077681;28;20075;-57
2023/05/08 05:38:29;;;;;;;16.98;12.32;;;11.50;99.90;;;;;;5076367;28;20044;-57
2023/05/08 05:40:55;;;;;;;15.18;12.02;;;11.50;99.90;;;;;;5078224;28;20044;-57
2023/05/08 05:43:21;;;;;;;15.98;11.45;;;11.40;99.90;;;;;;5058074;28;20052;-57
2023/05/08 05:45:46;;;;;;;18.02;12.35;;;11.50;99.90;;;;;;5078299;28;20055;-58
2023/05/08 05:48:12;;;;;;;16.13;12.43;;;11.70;99.90;;;;;;5089437;28;20033;-58
2023/05/08 05:50:38;;;;;;;15.20;12.27;;;11.70;99.90;;;;;;5077969;28;20040;-58
2023/05/08 05:53:03;;;;;;;14.90;11.93;;;11.70;99.90;;;;;;5077505;28;20041;-57
2023/05/08 05:55:29;;;;;;;15.80;12.25;;;11.90;99.90;;;;;;5076739;28;20044;-58
2023/05/08 05:57:55;;;;;;;15.15;12.18;;;11.90;99.90;;;;;;5078252;28;20052;-58
2023/05/08 06:00:21;;;;;;;13.45;11.27;;;12.00;99.90;;;;;;5071372;28;20411;-58
2023/05/08 06:02:47;;;;;;;15.80;12.20;;;12.00;99.90;;;;;;5074499;28;20036;-58
2023/05/08 06:05:13;;;;;;;13.75;11.15;;;12.00;99.90;;;;;;5072294;28;20048;-58
2023/05/08 06:07:38;;;;;;;14.90;11.60;;;12.10;99.90;;;;;;5074302;28;20079;-57
2023/05/08 06:10:05;;;;;;;14.40;11.40;;;12.20;99.90;;;;;;5055369;28;20110;-57
2023/05/08 06:12:31;;;;;;;14.30;11.75;;;12.40;99.90;;;;;;5072357;28;20068;-58
2023/05/08 06:14:56;;;;;;;15.30;11.93;;;12.40;99.90;;;;;;5073689;28;20045;-58
2023/05/08 06:17:22;;;;;;;17.13;11.68;;;12.40;99.90;;;;;;5072153;28;20127;-58
2023/05/08 06:19:49;;;;;;;15.52;11.40;;;12.40;99.90;;;;;;5074279;28;20045;-57
2023/05/08 06:22:18;;;;;;;14.25;11.20;;;12.50;99.90;;;;;;5071945;28;20058;-57
2023/05/08 06:24:44;;;;;;;15.23;11.93;;;12.50;99.90;;;;;;5074327;28;20045;-58
2023/05/08 06:27:10;;;;;;;13.70;11.38;;;12.50;99.90;;;;;;5073009;28;20049;-58
2023/05/08 06:29:36;;;;;;;16.02;11.07;;;12.50;99.90;;;;;;5073037;28;20580;-58
2023/05/08 06:32:02;;;;;;;12.93;10.48;;;12.50;99.90;;;;;;5073572;28;20121;-58
2023/05/08 06:34:28;;;;;;;14.25;11.52;;;12.50;99.90;;;;;;5071761;28;20052;-58
2023/05/08 06:36:53;;;;;;;14.63;11.48;;;12.50;99.90;;;;;;5077672;28;20062;-57
2023/05/08 06:39:19;;;;;;;17.08;12.02;;;12.40;99.90;;;;;;5075899;28;20044;-58
2023/05/08 06:41:48;;;;;;;16.45;10.98;;;12.50;99.90;;;;;;5077355;28;20630;-57
2023/05/08 06:44:14;;;;;;;14.98;11.82;;;12.50;99.90;;;;;;5075882;28;20036;-57
2023/05/08 06:46:39;;;;;;;14.45;12.15;;;12.50;99.90;;;;;;5079326;28;20056;-57
2023/05/08 06:49:05;;;;;;;14.93;11.32;;;12.60;99.90;;;;;;5086309;28;20089;-57
2023/05/08 06:51:31;;;;;;;14.20;11.38;;;12.50;99.90;;;;;;5075823;28;20379;-57
2023/05/08 06:53:57;;;;;;;14.35;11.68;;;12.50;99.90;;;;;;5077827;28;20435;-57
2023/05/08 06:56:23;;;;;;;14.50;11.50;;;12.60;99.90;;;;;;5075460;28;20100;-57
2023/05/08 06:58:49;;;;;;;14.18;11.40;;;12.60;99.90;;;;;;5076996;28;20557;-57
2023/05/08 07:01:15;;;;;;;14.25;11.43;;;12.80;99.90;;;;;;5080142;28;20048;-58
2023/05/08 07:03:40;;;;;;;19.05;12.02;;;12.90;99.90;;;;;;5078241;28;20036;-58
2023/05/08 07:06:10;;;;;;;14.98;12.25;;;13.00;99.90;;;;;;5079640;28;20581;-57
2023/05/08 07:08:36;;;;;;;15.18;11.50;;;12.90;99.90;;;;;;5075237;28;20044;-58
2023/05/08 07:11:02;;;;;;;15.45;12.13;;;12.80;99.90;;;;;;5077132;28;20043;-57
2023/05/08 07:13:29;;;;;;;16.15;11.40;;;13.00;99.90;;;;;;5057161;28;20145;-58
2023/05/08 07:15:55;;;;;;;14.07;11.63;;;13.00;99.90;;;;;;5077454;28;20033;-58
2023/05/08 07:18:21;;;;;;;14.77;11.32;;;13.00;99.90;;;;;;5074252;28;20044;-58
2023/05/08 07:20:46;;;;;;;15.75;12.10;;;13.10;99.90;;;;;;5076557;28;20135;-57
2023/05/08 07:23:12;;;;;;;14.55;11.52;;;13.10;99.90;;;;;;5076130;28;20455;-58
2023/05/08 07:25:38;;;;;;;17.75;11.80;;;13.10;99.90;;;;;;5075651;28;20045;-58
2023/05/08 07:28:04;;;;;;;14.70;11.00;;;13.10;99.90;;;;;;5076930;28;20175;-57
2023/05/08 07:30:30;;;;;;;14.50;11.20;;;13.10;99.90;;;;;;5075110;28;20123;-58
2023/05/08 07:32:55;;;;;;;14.48;12.00;;;13.10;99.90;;;;;;5058915;28;20051;-57
2023/05/08 07:35:21;;;;;;;14.77;11.90;;;13.20;99.90;;;;;;5074571;28;20041;-58
2023/05/08 07:37:47;;;;;;;14.60;12.05;;;13.10;99.90;;;;;;5058395;28;20056;-58
2023/05/08 07:40:13;;;;;;;14.95;11.50;;;13.20;99.90;;;;;;5076021;28;20052;-58
2023/05/08 07:42:42;;;;;;;17.98;12.20;;;13.20;99.90;;;;;;5075203;28;20443;-58
2023/05/08 07:45:10;;;;;;;15.70;11.98;;;13.30;99.90;;;;;;5075840;28;20063;-58
2023/05/08 07:47:36;;;;;;;14.35;11.63;;;13.40;99.90;;;;;;5072289;28;20130;-58
2023/05/08 07:50:02;;;;;;;15.25;12.32;;;13.60;99.90;;;;;;5076791;28;20036;-58
2023/05/08 07:52:28;;;;;;;15.48;12.60;;;13.50;99.90;;;;;;5074555;28;20048;-55
2023/05/08 07:54:54;;;;;;;15.70;12.02;;;13.50;99.90;;;;;;5074937;28;20028;-56
2023/05/08 07:57:20;;;;;;;17.27;12.93;;;13.60;99.90;;;;;;5075139;28;20051;-55
2023/05/08 07:59:45;;;;;;;16.20;13.00;;;13.70;99.90;;;;;;5055804;28;20048;-58
2023/05/08 08:02:11;;;;;;;14.75;12.07;;;13.90;99.90;;;;;;5075732;28;20041;-59
2023/05/08 08:04:37;;;;;;;15.20;12.32;;;14.00;99.90;;;;;;5055816;28;20516;-57
2023/05/08 08:07:02;;;;;;;16.38;11.98;;;14.10;99.90;;;;;;5076404;28;20636;-58
2023/05/08 08:09:28;;;;;;;15.00;12.30;;;14.30;99.90;;;;;;5073858;28;20040;-58
2023/05/08 08:11:54;;;;;;;17.85;12.77;;;14.40;99.90;;;;;;5075267;28;20064;-58
2023/05/08 08:14:19;;;;;;;24.20;14.25;;;14.60;99.90;;;;;;5074127;28;20119;-57
2023/05/08 08:16:45;;;;;;;15.88;12.55;;;14.60;99.90;;;;;;5074160;28;20048;-58
2023/05/08 08:19:11;;;;;;;16.17;12.85;;;14.70;99.90;;;;;;5075350;28;20051;-57
2023/05/08 08:21:42;;;;;;;14.73;12.10;;;14.80;99.90;;;;;;5073418;28;20029;-57
2023/05/08 08:24:07;;;;;;;15.55;13.15;;;14.90;99.90;;;;;;5072810;28;20059;-57
2023/05/08 08:26:34;;;;;;;16.17;12.00;;;14.90;99.90;;;;;;5073803;28;20040;-57
2023/05/08 08:28:59;;;;;;;16.02;13.27;;;15.10;99.90;;;;;;5074494;28;20047;-57
2023/05/08 08:31:25;;;;;;;16.40;12.57;;;15.10;99.90;;;;;;5073010;28;20104;-57
2023/05/08 08:33:51;;;;;;;16.55;12.70;;;15.20;99.90;;;;;;5073074;28;20036;-58
2023/05/08 08:36:17;;;;;;;15.80;13.05;;;15.10;99.90;;;;;;5073113;28;20044;-58
2023/05/08 08:38:42;;;;;;;14.32;12.13;;;15.40;99.90;;;;;;5073188;28;20036;-57
2023/05/08 08:41:08;;;;;;;17.05;13.60;;;15.40;99.90;;;;;;5040345;28;20100;-57
2023/05/08 08:43:34;;;;;;;15.93;12.95;;;15.30;99.90;;;;;;5070169;28;20504;-57
2023/05/08 08:46:13;;;;;;;19.30;12.60;;;15.60;99.90;;;;;;5057628;28;20097;-57
2023/05/08 08:48:44;;;;;;;15.07;12.50;;;15.60;99.90;;;;;;5072133;28;20075;-58
2023/05/08 08:51:31;;;;;;;17.67;12.57;;;15.80;99.90;;;;;;5072131;28;20567;-57
2023/05/08 08:54:16;;;;;;;15.00;12.50;;;16.00;99.90;;;;;;5072987;28;20049;-57
2023/05/08 08:56:44;;;;;;;15.80;12.73;;;15.80;99.90;;;;;;5071966;28;20049;-57
2023/05/08 08:59:12;;;;;;;15.10;12.60;;;16.00;99.90;;;;;;5072472;28;20040;-58
2023/05/08 09:01:40;;;;;;;14.93;13.07;;;16.00;99.90;;;;;;5072652;28;20048;-58
2023/05/08 09:04:06;;;;;;;17.63;13.48;;;16.10;99.90;;;;;;5039925;28;20054;-57
2023/05/08 09:06:35;;;;;;;15.93;13.20;;;16.30;99.90;;;;;;5073272;28;20123;-58
2023/05/08 09:09:02;;;;;;;15.07;12.70;;;16.10;99.90;;;;;;5073952;28;20507;-58
2023/05/08 09:11:28;;;;;;;14.57;12.65;;;16.10;99.90;;;;;;5078313;28;20068;-58
2023/05/08 09:13:54;;;;;;;16.75;14.13;;;16.10;99.90;;;;;;5076209;28;20055;-57
2023/05/08 09:16:21;;;;;;;15.52;12.02;;;16.40;99.90;;;;;;5077929;28;20056;-56
2023/05/08 09:18:47;;;;;;;14.10;11.30;;;16.40;99.90;;;;;;5076618;28;20032;-57
2023/05/08 09:21:13;;;;;;;23.17;13.23;;;16.60;99.90;;;;;;5076000;28;20130;-57
2023/05/08 09:23:57;;;;;;;14.90;12.55;;;16.60;99.90;;;;;;5078217;28;20091;-57
2023/05/08 09:26:35;;;;;;;16.05;13.32;;;16.80;99.90;;;;;;5075963;28;20120;-57
2023/05/08 09:29:23;;;;;;;15.02;12.90;;;16.70;99.90;;;;;;5077956;28;20053;-57
2023/05/08 09:31:51;;;;;;;16.42;13.07;;;17.00;99.90;;;;;;5077609;28;20044;-57
2023/05/08 09:34:28;;;;;;;14.52;12.45;;;17.00;99.90;;;;;;5076049;28;20043;-57
2023/05/08 09:36:55;;;;;;;15.73;12.75;;;16.90;99.90;;;;;;5077870;28;20122;-57
2023/05/08 09:39:24;;;;;;;14.25;11.73;;;16.90;99.90;;;;;;5075110;28;20059;-58
2023/05/08 09:41:57;;;;;;;16.13;13.02;;;17.20;99.90;;;;;;5077590;28;20052;-58
2023/05/08 09:44:23;;;;;;;14.70;12.75;;;17.40;99.90;;;;;;5059069;28;20048;-58
2023/05/08 09:46:49;;;;;;;15.73;13.38;;;17.30;99.90;;;;;;5076219;28;20559;-58
2023/05/08 09:49:18;;;;;;;15.98;12.77;;;17.40;99.90;;;;;;5077870;28;20044;-58
2023/05/08 09:51:54;;;;;;;14.98;12.55;;;17.50;99.90;;;;;;5056575;28;20048;-57
2023/05/08 09:54:20;;;;;;;16.42;12.85;;;17.40;99.90;;;;;;5077676;28;20044;-58
2023/05/08 09:56:45;;;;;;;15.77;13.77;;;17.60;99.90;;;;;;5074115;28;20166;-58
2023/05/08 09:59:27;;;;;;;15.88;13.50;;;17.70;99.90;;;;;;5073864;28;20090;-58
2023/05/08 10:01:54;;;;;;;17.42;13.25;;;17.60;99.90;;;;;;5076195;28;20055;-58
2023/05/08 10:04:36;;;;;;;19.13;14.07;;;17.80;99.90;;;;;;5074007;28;20115;-58
2023/05/08 10:07:03;;;;;;;14.88;13.27;;;17.90;99.90;;;;;;5076648;28;20068;-57
2023/05/08 10:09:29;;;;;;;15.77;14.07;;;17.80;99.90;;;;;;5075139;28;20044;-57
2023/05/08 10:11:55;;;;;;;18.13;15.23;;;17.90;99.90;;;;;;5077715;28;20045;-58
2023/05/08 10:14:22;;;;;;;17.30;14.63;;;17.90;99.90;;;;;;5058995;28;20412;-58
2023/05/08 10:16:53;;;;;;;17.13;13.10;;;17.90;99.90;;;;;;5058657;28;20055;-58
2023/05/08 10:19:22;;;;;;;16.95;14.25;;;18.00;99.90;;;;;;5077597;28;20068;-58
2023/05/08 10:21:53;;;;;;;15.18;13.30;;;18.00;99.90;;;;;;5075096;28;20052;-57
2023/05/08 10:24:20;;;;;;;18.15;14.45;;;18.10;99.90;;;;;;5077090;28;20417;-57
2023/05/08 10:27:15;;;;;;;17.42;14.77;;;17.90;99.90;;;;;;5058268;28;20399;-57
2023/05/08 10:29:55;;;;;;;14.88;13.07;;;17.90;99.90;;;;;;5075864;28;20147;-58
2023/05/08 10:32:22;;;;;;;16.48;14.35;;;18.10;99.90;;;;;;5077595;28;20059;-58
2023/05/08 10:34:51;;;;;;;17.50;15.05;;;18.10;99.90;;;;;;5075297;28;20044;-58
2023/05/08 10:37:17;;;;;;;16.25;14.15;;;18.20;99.90;;;;;;5077828;28;20037;-57
2023/05/08 10:39:44;;;;;;;18.45;14.55;;;18.40;99.90;;;;;;5075770;28;20115;-58
2023/05/08 10:42:12;;;;;;;17.10;14.57;;;18.30;99.90;;;;;;5077032;28;20556;-58
2023/05/08 10:44:39;;;;;;;18.10;14.40;;;18.50;99.90;;;;;;5076646;28;20063;-58
2023/05/08 10:47:05;;;;;;;15.48;13.70;;;18.50;99.90;;;;;;5075256;28;20070;-57
2023/05/08 10:49:59;;;;;;;17.70;14.88;;;18.60;99.90;;;;;;5058937;28;20052;-57
2023/05/08 10:53:04;;;;;;;17.83;14.25;;;18.50;99.90;;;;;;5075506;28;20483;-57
2023/05/08 10:55:36;;;;;;;16.65;14.88;;;18.60;99.90;;;;;;5062277;28;20056;-58
2023/05/08 10:58:28;;;;;;;16.83;13.38;;;18.80;99.90;;;;;;5076795;28;20041;-58
2023/05/08 11:00:59;;;;;;;17.83;14.52;;;19.00;99.90;;;;;;5075134;28;20055;-57
2023/05/08 11:03:26;;;;;;;16.38;14.48;;;19.00;99.90;;;;;;5076698;28;20057;-58
2023/05/08 11:05:55;;;;;;;17.42;14.27;;;19.20;99.90;;;;;;5076186;28;20066;-58
2023/05/08 11:08:28;;;;;;;18.55;15.25;;;19.30;99.90;;;;;;5075639;28;20093;-58
2023/05/08 11:10:57;;;;;;;16.67;14.68;;;19.40;99.90;;;;;;5076989;28;20072;-58
2023/05/08 11:13:28;;;;;;;18.90;16.55;;;19.40;99.90;;;;;;5060897;28;20487;-58
2023/05/08 11:15:54;;;;;;;17.45;15.27;;;19.30;99.90;;;;;;5055979;28;20049;-58
2023/05/08 11:18:21;;;;;;;18.30;15.35;;;19.50;99.90;;;;;;5054391;28;20048;-58
2023/05/08 11:20:59;;;;;;;16.88;15.00;;;19.70;99.90;;;;;;5055702;28;20041;-58
2023/05/08 11:23:30;;;;;;;19.23;16.58;;;19.70;99.90;;;;;;5057247;28;20124;-58
2023/05/08 11:26:15;;;;;;;21.55;16.17;;;19.70;99.90;;;;;;5057204;28;20049;-58
2023/05/08 11:28:53;;;;;;;18.98;16.23;;;19.90;99.90;;;;;;5057083;28;20073;-58
2023/05/08 11:31:19;;;;;;;19.27;15.88;;;19.80;99.90;;;;;;5055642;28;20044;-58
2023/05/08 11:33:45;;;;;;;16.23;13.90;;;20.00;99.90;;;;;;5058481;28;20048;-58
2023/05/08 11:36:12;;;;;;;17.30;13.73;;;20.00;99.90;;;;;;5059064;28;20477;-58
2023/05/08 11:38:38;;;;;;;17.30;15.25;;;20.20;99.90;;;;;;5036596;28;20460;-58
2023/05/08 11:41:20;;;;;;;18.20;16.00;;;20.10;99.90;;;;;;5048187;28;20033;-58
2023/05/08 11:44:01;;;;;;;;;;;20.10;99.90;;;;;;5056300;28;20103;-58
2023/05/08 11:46:33;;;;;;;19.35;16.20;;;20.20;99.90;;;;;;5059777;28;20296;-58
2023/05/08 11:49:00;;;;;;;18.75;16.42;;;20.40;99.90;;;;;;5060175;28;20049;-58
2023/05/08 11:51:31;;;;;;;20.50;17.33;;;20.40;99.90;;;;;;5056966;28;20040;-58
2023/05/08 11:53:58;;;;;;;16.20;14.23;;;20.40;99.90;;;;;;5060520;28;20160;-56
2023/05/08 11:56:25;;;;;;;17.48;15.60;;;20.50;99.90;;;;;;5058367;28;20044;-58
2023/05/08 11:59:04;;;;;;;20.45;17.58;;;20.60;99.90;;;;;;5060046;28;20055;-58
2023/05/08 12:01:31;;;;;;;18.17;16.25;;;20.30;99.90;;;;;;5059318;28;20108;-58
2023/05/08 12:04:15;;;;;;;19.42;17.33;;;20.40;99.90;;;;;;5058419;28;20045;-58
2023/05/08 12:06:41;;;;;;;22.15;16.83;;;20.30;99.90;;;;;;5059873;28;20068;-58
2023/05/08 12:09:15;;;;;;;19.17;16.27;;;20.50;99.90;;;;;;5040015;28;20601;-58
2023/05/08 12:11:44;;;;;;;18.30;16.27;;;20.70;99.90;;;;;;5059957;28;20073;-58
2023/05/08 12:14:15;;;;;;;19.25;15.23;;;20.70;99.90;;;;;;5076177;28;20049;-58
2023/05/08 12:16:41;;;;;;;19.17;15.32;;;20.80;99.90;;;;;;5078373;28;20048;-58
2023/05/08 12:19:11;;;;;;;17.52;14.20;;;20.90;99.90;;;;;;5079639;28;20822;-58
2023/05/08 12:21:37;;;;;;;17.20;14.25;;;21.20;99.90;;;;;;5077479;28;20048;-58
2023/05/08 12:24:09;;;;;;;15.68;13.18;;;21.00;99.90;;;;;;5079833;28;20040;-58
2023/05/08 12:26:36;;;;;;;18.20;15.73;;;21.30;99.90;;;;;;5077719;28;20048;-58
2023/05/08 12:29:05;;;;;;;16.25;13.93;;;21.20;99.90;;;;;;5078976;28;20044;-58
2023/05/08 12:31:31;;;;;;;16.15;13.98;;;21.40;99.90;;;;;;5079262;28;20092;-58
2023/05/08 12:33:57;;;;;;;16.17;14.40;;;21.70;99.90;;;;;;5077347;28;20036;-58
2023/05/08 12:36:23;;;;;;;17.98;14.95;;;21.70;99.90;;;;;;5079472;28;20092;-58
2023/05/08 12:38:50;;;;;;;17.35;14.57;;;21.90;99.90;;;;;;5077218;28;20036;-58
2023/05/08 12:41:22;;;;;;;16.88;14.95;;;21.80;99.90;;;;;;5079736;28;20040;-58
2023/05/08 12:43:48;;;;;;;18.17;15.60;;;21.50;99.90;;;;;;5059468;28;20079;-58